createdAt,value
2022-08-09T00:00:46.290Z,0.00
2022-08-09T00:01:54.942Z,0.00
2022-08-09T00:02:49.386Z,0.00
2022-08-09T00:04:00.729Z,0.00
2022-08-09T00:05:03.153Z,0.00
2022-08-09T00:06:19.202Z,0.00
2022-08-09T00:06:46.443Z,0.00
2022-08-09T00:07:45.469Z,0.00
2022-08-09T00:08:45.373Z,0.00
2022-08-09T00:09:45.363Z,0.00
2022-08-09T00:10:45.355Z,0.00
2022-08-09T00:12:03.919Z,0.00
2022-08-09T00:12:46.366Z,0.00
2022-08-09T00:13:45.318Z,0.00
2022-08-09T00:14:45.436Z,0.00
2022-08-09T00:15:59.847Z,0.00
2022-08-09T00:16:47.292Z,0.00
2022-08-09T00:18:06.091Z,0.00
2022-08-09T00:18:46.299Z,0.00
2022-08-09T00:19:48.055Z,0.00
2022-08-09T00:20:49.785Z,0.00
2022-08-09T00:21:56.584Z,0.00
2022-08-09T00:22:47.147Z,0.00
2022-08-09T00:23:55.408Z,0.00
2022-08-09T00:24:46.241Z,0.00
2022-08-09T00:25:45.189Z,0.00
2022-08-09T00:26:46.228Z,0.00
2022-08-09T00:27:48.044Z,0.00
2022-08-09T00:28:52.644Z,0.00
2022-08-09T00:30:23.587Z,0.00
2022-08-09T00:30:46.168Z,0.00
2022-08-09T00:31:57.766Z,0.00
2022-08-09T00:32:46.633Z,0.00
2022-08-09T00:33:51.022Z,0.00
2022-08-09T00:34:46.357Z,0.00
2022-08-09T00:35:46.119Z,0.00
2022-08-09T00:36:45.069Z,0.00
2022-08-09T00:37:45.059Z,0.00
2022-08-09T00:38:45.046Z,0.00
2022-08-09T00:40:09.676Z,0.00
2022-08-09T00:40:52.386Z,0.00
2022-08-09T00:44:10.099Z,0.00
2022-08-09T00:44:14.249Z,0.00
2022-08-09T00:44:15.997Z,0.00
2022-08-09T00:44:47.037Z,0.00
2022-08-09T00:45:50.608Z,0.00
2022-08-09T00:46:55.869Z,0.00
2022-08-09T00:47:45.985Z,0.00
2022-08-09T00:48:47.522Z,0.00
2022-08-09T00:49:52.578Z,0.00
2022-08-09T00:50:45.951Z,0.00
2022-08-09T00:51:56.057Z,0.00
2022-08-09T00:52:51.946Z,0.00
2022-08-09T00:53:44.883Z,0.00
2022-08-09T00:54:45.067Z,0.00
2022-08-09T00:56:05.099Z,0.00
2022-08-09T00:56:45.891Z,0.00
2022-08-09T00:57:44.845Z,0.00
2022-08-09T00:58:48.946Z,0.00
2022-08-09T00:59:47.085Z,0.00
2022-08-09T01:00:45.897Z,0.00
2022-08-09T01:01:45.398Z,0.00
2022-08-09T01:02:44.790Z,0.00
2022-08-09T01:03:46.244Z,0.00
2022-08-09T01:04:44.764Z,0.00
2022-08-09T01:05:53.150Z,0.00
2022-08-09T01:06:53.729Z,0.00
2022-08-09T01:08:00.087Z,0.00
2022-08-09T01:08:49.762Z,0.00
2022-08-09T01:09:44.714Z,0.00
2022-08-09T01:10:45.185Z,0.00
2022-08-09T01:11:53.275Z,0.00
2022-08-09T01:12:44.685Z,0.00
2022-08-09T01:14:19.407Z,0.00
2022-08-09T01:15:19.402Z,0.00
2022-08-09T01:16:19.391Z,0.00
2022-08-09T01:17:19.372Z,0.00
2022-08-09T01:18:29.744Z,0.00
2022-08-09T01:19:42.374Z,0.00
2022-08-09T01:20:20.378Z,0.00
2022-08-09T01:21:19.331Z,0.00
2022-08-09T01:22:19.317Z,0.00
2022-08-09T01:24:02.106Z,0.00
2022-08-09T01:24:20.535Z,0.00
2022-08-09T01:25:19.400Z,0.00
2022-08-09T01:26:19.277Z,0.00
2022-08-09T01:27:19.265Z,0.00
2022-08-09T01:28:19.256Z,0.00
2022-08-09T01:29:19.244Z,0.00
2022-08-09T01:30:28.749Z,0.00
2022-08-09T01:31:23.402Z,0.00
2022-08-09T01:32:32.647Z,0.00
2022-08-09T01:33:20.439Z,0.00
2022-08-09T01:34:19.187Z,0.00
2022-08-09T01:35:38.029Z,0.00
2022-08-09T01:36:20.207Z,0.00
2022-08-09T01:37:21.721Z,0.00
2022-08-09T01:38:20.188Z,0.00
2022-08-09T01:39:19.211Z,0.00
2022-08-09T01:40:23.236Z,0.00
2022-08-09T01:41:25.838Z,0.00
2022-08-09T01:42:22.194Z,0.00
2022-08-09T01:43:25.105Z,0.00
2022-08-09T01:44:19.083Z,0.00
2022-08-09T01:45:19.070Z,0.00
2022-08-09T01:46:24.990Z,0.00
2022-08-09T01:47:20.087Z,0.00
2022-08-09T01:48:19.040Z,0.00
2022-08-09T01:49:19.034Z,0.00
2022-08-09T01:50:19.023Z,0.00
2022-08-09T01:51:22.787Z,0.00
2022-08-09T01:52:25.071Z,0.00
2022-08-09T01:53:21.586Z,0.00
2022-08-09T01:54:18.976Z,0.00
2022-08-09T01:55:18.969Z,0.00
2022-08-09T01:56:18.954Z,0.00
2022-08-09T01:57:18.946Z,0.00
2022-08-09T01:58:24.142Z,0.00
2022-08-09T01:59:18.920Z,0.00
2022-08-09T02:00:35.090Z,0.00
2022-08-09T02:01:19.990Z,0.00
2022-08-09T02:02:19.920Z,0.00
2022-08-09T02:03:18.875Z,0.00
2022-08-09T02:04:18.867Z,0.00
2022-08-09T02:05:18.857Z,0.00
2022-08-09T02:06:18.852Z,0.00
2022-08-09T02:08:39.147Z,0.00
2022-08-09T02:08:41.212Z,0.00
2022-08-09T02:09:19.855Z,0.00
2022-08-09T02:10:18.804Z,0.00
2022-08-09T02:11:19.855Z,0.00
2022-08-09T02:12:27.089Z,0.00
2022-08-09T02:13:19.809Z,0.00
2022-08-09T02:14:25.512Z,0.00
2022-08-09T02:15:19.794Z,0.00
2022-08-09T02:16:33.637Z,0.00
2022-08-09T02:17:59.338Z,0.00
2022-08-09T02:18:18.722Z,0.00
2022-08-09T02:19:18.705Z,0.00
2022-08-09T02:20:26.753Z,0.00
2022-08-09T02:21:22.057Z,0.00
2022-08-09T02:22:19.102Z,0.00
2022-08-09T02:23:19.904Z,0.00
2022-08-09T02:24:26.484Z,0.00
2022-08-09T02:25:19.677Z,0.00
2022-08-09T02:26:27.024Z,0.00
2022-08-09T02:27:18.766Z,0.00
2022-08-09T02:28:18.613Z,0.00
2022-08-09T02:29:18.603Z,0.00
2022-08-09T02:30:18.589Z,0.00
2022-08-09T02:31:18.607Z,0.00
2022-08-09T02:32:18.573Z,0.00
2022-08-09T02:33:18.575Z,0.00
2022-08-09T02:34:40.119Z,0.00
2022-08-09T02:35:23.092Z,0.00
2022-08-09T02:36:19.564Z,0.00
2022-08-09T02:37:18.519Z,0.00
2022-08-09T02:38:27.886Z,0.00
2022-08-09T02:39:33.425Z,0.00
2022-08-09T02:40:26.820Z,0.00
2022-08-09T02:41:19.633Z,0.00
2022-08-09T02:42:18.461Z,0.00
2022-08-09T02:43:18.450Z,0.00
2022-08-09T02:44:29.046Z,0.00
2022-08-09T02:45:20.430Z,0.00
2022-08-09T02:46:19.456Z,0.00
2022-08-09T02:47:18.411Z,0.00
2022-08-09T02:48:29.767Z,0.00
2022-08-09T02:49:19.422Z,0.00
2022-08-09T02:50:19.411Z,0.00
2022-08-09T02:51:18.368Z,0.00
2022-08-09T02:52:18.357Z,0.00
2022-08-09T02:53:26.226Z,0.00
2022-08-09T02:54:20.332Z,0.00
2022-08-09T02:55:21.166Z,0.00
2022-08-09T02:56:18.310Z,0.00
2022-08-09T02:57:23.582Z,0.00
2022-08-09T02:58:37.009Z,0.00
2022-08-09T02:59:26.431Z,0.00
2022-08-09T03:00:24.985Z,0.00
2022-08-09T03:01:21.655Z,0.00
2022-08-09T03:02:19.393Z,0.00
2022-08-09T03:03:21.448Z,0.00
2022-08-09T03:04:19.604Z,0.00
2022-08-09T03:05:18.214Z,0.00
2022-08-09T03:06:18.202Z,0.00
2022-08-09T03:07:18.190Z,0.00
2022-08-09T03:08:24.187Z,0.00
2022-08-09T03:09:18.169Z,0.00
2022-08-09T03:10:18.164Z,0.00
2022-08-09T03:12:04.932Z,0.00
2022-08-09T03:12:19.171Z,0.00
2022-08-09T03:13:18.126Z,0.00
2022-08-09T03:14:28.163Z,0.00
2022-08-09T03:15:18.312Z,0.00
2022-08-09T03:16:18.099Z,0.00
2022-08-09T03:17:20.388Z,0.00
2022-08-09T03:18:19.174Z,0.00
2022-08-09T03:19:59.482Z,0.00
2022-08-09T03:20:19.088Z,0.00
2022-08-09T03:21:18.045Z,0.00
2022-08-09T03:22:25.057Z,0.00
2022-08-09T03:23:24.312Z,0.00
2022-08-09T03:24:25.204Z,0.00
2022-08-09T03:25:26.955Z,0.00
2022-08-09T03:26:19.022Z,0.00
2022-08-09T03:27:21.567Z,0.00
2022-08-09T03:28:17.966Z,0.00
2022-08-09T03:29:22.921Z,0.00
2022-08-09T03:30:29.759Z,0.00
2022-08-09T03:31:22.670Z,0.00
2022-08-09T03:32:17.926Z,0.00
2022-08-09T03:33:19.439Z,0.00
2022-08-09T03:34:17.906Z,0.00
2022-08-09T03:35:24.828Z,0.00
2022-08-09T03:36:18.921Z,0.00
2022-08-09T03:37:56.465Z,0.00
2022-08-09T03:38:30.269Z,0.00
2022-08-09T03:39:28.363Z,0.00
2022-08-09T03:40:18.835Z,1.00
2022-08-09T03:41:18.488Z,0.00
2022-08-09T03:42:19.310Z,0.00
2022-08-09T03:43:18.804Z,1.00
2022-08-09T03:44:17.743Z,1.00
2022-08-09T03:45:17.785Z,0.00
2022-08-09T03:46:19.974Z,0.00
2022-08-09T03:47:17.727Z,2.00
2022-08-09T03:48:18.758Z,1.00
2022-08-09T03:49:18.940Z,1.00
2022-08-09T03:50:27.695Z,0.00
2022-08-09T03:51:55.622Z,0.00
2022-08-09T03:52:18.699Z,1.00
2022-08-09T03:53:17.645Z,1.00
2022-08-09T03:54:17.642Z,3.00
2022-08-09T03:55:17.825Z,2.00
2022-08-09T03:56:17.618Z,3.00
2022-08-09T03:57:20.638Z,2.00
2022-08-09T03:58:21.064Z,2.00
2022-08-09T03:59:21.001Z,3.00
2022-08-09T04:00:18.620Z,5.00
2022-08-09T04:01:17.598Z,6.00
2022-08-09T04:02:19.693Z,5.00
2022-08-09T04:03:25.009Z,9.00
2022-08-09T04:04:18.769Z,16.00
2022-08-09T04:05:27.945Z,12.00
2022-08-09T04:06:18.540Z,19.00
2022-08-09T04:07:17.493Z,17.00
2022-08-09T04:08:17.496Z,23.00
2022-08-09T04:09:44.556Z,25.00
2022-08-09T04:10:18.251Z,26.00
2022-08-09T04:11:17.451Z,32.00
2022-08-09T04:12:30.669Z,40.00
2022-08-09T04:13:18.661Z,43.00
2022-08-09T04:14:52.819Z,45.00
2022-08-09T04:15:52.528Z,52.00
2022-08-09T04:16:21.264Z,61.00
2022-08-09T04:17:17.385Z,66.00
2022-08-09T04:18:19.264Z,74.00
2022-08-09T04:19:30.321Z,81.00
2022-08-09T04:20:17.354Z,88.00
2022-08-09T04:21:17.359Z,99.00
2022-08-09T04:22:17.336Z,107.00
2022-08-09T04:23:17.917Z,113.00
2022-08-09T04:24:18.381Z,129.00
2022-08-09T04:25:17.300Z,132.00
2022-08-09T04:26:17.285Z,145.00
2022-08-09T04:27:23.289Z,158.00
2022-08-09T04:28:17.270Z,166.00
2022-08-09T04:29:19.267Z,177.00
2022-08-09T04:30:17.245Z,171.00
2022-08-09T04:31:17.235Z,171.00
2022-08-09T04:32:31.460Z,177.00
2022-08-09T04:33:19.217Z,190.00
2022-08-09T04:34:30.571Z,196.00
2022-08-09T04:35:18.229Z,205.00
2022-08-09T04:36:17.180Z,215.00
2022-08-09T04:37:17.173Z,223.00
2022-08-09T04:38:17.160Z,231.00
2022-08-09T04:39:17.440Z,239.00
2022-08-09T04:40:19.375Z,252.00
2022-08-09T04:41:18.161Z,260.00
2022-08-09T04:42:17.122Z,270.00
2022-08-09T04:43:17.105Z,284.00
2022-08-09T04:44:17.095Z,292.00
2022-08-09T04:45:23.093Z,306.00
2022-08-09T04:46:36.554Z,317.00
2022-08-09T04:47:18.107Z,322.00
2022-08-09T04:48:17.052Z,338.00
2022-08-09T04:49:17.040Z,349.00
2022-08-09T04:50:17.034Z,362.00
2022-08-09T04:51:17.019Z,371.00
2022-08-09T04:52:26.211Z,384.00
2022-08-09T04:53:17.006Z,395.00
2022-08-09T04:54:52.231Z,439.00
2022-08-09T04:55:57.897Z,425.00
2022-08-09T04:56:53.650Z,434.00
2022-08-09T04:57:54.139Z,447.00
2022-08-09T04:58:51.834Z,455.00
2022-08-09T04:59:51.619Z,467.00
2022-08-09T05:00:51.605Z,474.00
2022-08-09T05:01:51.599Z,486.00
2022-08-09T05:02:52.568Z,493.00
2022-08-09T05:03:56.792Z,504.00
2022-08-09T05:04:55.046Z,515.00
2022-08-09T05:06:04.370Z,525.00
2022-08-09T05:06:52.585Z,533.00
2022-08-09T05:07:51.534Z,539.00
2022-08-09T05:08:51.525Z,550.00
2022-08-09T05:09:51.522Z,559.00
2022-08-09T05:10:51.502Z,569.00
2022-08-09T05:11:51.506Z,571.00
2022-08-09T05:12:51.483Z,591.00
2022-08-09T05:13:51.523Z,599.00
2022-08-09T05:14:51.460Z,599.00
2022-08-09T05:15:56.884Z,614.00
2022-08-09T05:16:59.392Z,620.00
2022-08-09T05:18:57.408Z,629.00
2022-08-09T05:18:58.168Z,636.00
2022-08-09T05:19:56.996Z,640.00
2022-08-09T05:20:51.403Z,654.00
2022-08-09T05:21:55.293Z,666.00
2022-08-09T05:23:55.221Z,663.00
2022-08-09T05:23:57.874Z,681.00
2022-08-09T05:24:52.403Z,689.00
2022-08-09T05:25:51.389Z,691.00
2022-08-09T05:26:51.334Z,697.00
2022-08-09T05:27:51.329Z,700.00
2022-08-09T05:28:52.132Z,700.00
2022-08-09T05:29:51.310Z,714.00
2022-08-09T05:30:51.582Z,730.00
2022-08-09T05:31:56.745Z,740.00
2022-08-09T05:32:53.381Z,753.00
2022-08-09T05:33:51.264Z,766.00
2022-08-09T05:34:51.257Z,780.00
2022-08-09T05:35:51.263Z,785.00
2022-08-09T05:36:57.243Z,793.00
2022-08-09T05:37:51.234Z,796.00
2022-08-09T05:38:51.214Z,797.00
2022-08-09T05:39:51.265Z,797.00
2022-08-09T05:40:51.188Z,817.00
2022-08-09T05:41:51.179Z,836.00
2022-08-09T05:42:51.169Z,833.00
2022-08-09T05:43:51.160Z,842.00
2022-08-09T05:44:51.735Z,845.00
2022-08-09T05:45:56.781Z,872.00
2022-08-09T05:46:52.371Z,861.00
2022-08-09T05:47:52.345Z,881.00
2022-08-09T05:48:58.841Z,885.00
2022-08-09T05:50:31.069Z,891.00
2022-08-09T05:51:16.675Z,918.00
2022-08-09T05:51:52.117Z,918.00
2022-08-09T05:52:53.548Z,930.00
2022-08-09T05:53:57.046Z,935.00
2022-08-09T05:54:52.078Z,933.00
2022-08-09T05:55:51.028Z,948.00
2022-08-09T05:56:54.814Z,981.00
2022-08-09T05:57:56.698Z,975.00
2022-08-09T05:58:53.779Z,987.00
2022-08-09T05:59:52.031Z,995.00
2022-08-09T06:00:50.981Z,999.00
2022-08-09T06:01:50.981Z,1004.00
2022-08-09T06:02:54.317Z,1007.00
2022-08-09T06:03:58.081Z,1008.00
2022-08-09T06:04:57.983Z,1016.00
2022-08-09T06:06:04.724Z,1006.00
2022-08-09T06:06:51.954Z,1037.00
2022-08-09T06:08:05.189Z,1013.00
2022-08-09T06:08:52.800Z,1074.00
2022-08-09T06:10:01.338Z,1038.00
2022-08-09T06:10:50.879Z,1046.00
2022-08-09T06:11:57.809Z,1069.00
2022-08-09T06:12:59.329Z,1067.00
2022-08-09T06:13:52.091Z,1084.00
2022-08-09T06:14:50.837Z,1105.00
2022-08-09T06:15:57.035Z,1119.00
2022-08-09T06:16:52.429Z,1123.00
2022-08-09T06:17:50.802Z,1129.00
2022-08-09T06:18:50.793Z,1139.00
2022-08-09T06:19:50.789Z,1149.00
2022-08-09T06:20:54.906Z,1156.00
2022-08-09T06:21:58.777Z,1163.00
2022-08-09T06:22:51.791Z,1190.00
2022-08-09T06:23:55.816Z,1187.00
2022-08-09T06:24:50.730Z,1191.00
2022-08-09T06:25:50.727Z,1191.00
2022-08-09T06:26:50.708Z,1217.00
2022-08-09T06:27:51.724Z,1234.00
2022-08-09T06:28:59.565Z,1225.00
2022-08-09T06:30:04.650Z,1239.00
2022-08-09T06:30:51.710Z,1245.00
2022-08-09T06:32:08.407Z,1241.00
2022-08-09T06:32:59.789Z,1244.00
2022-08-09T06:33:53.252Z,1255.00
2022-08-09T06:34:53.111Z,1267.00
2022-08-09T06:35:56.796Z,1287.00
2022-08-09T06:36:57.359Z,1290.00
2022-08-09T06:38:05.367Z,1303.00
2022-08-09T06:38:50.582Z,1313.00
2022-08-09T06:40:00.659Z,1327.00
2022-08-09T06:40:55.041Z,1329.00
2022-08-09T06:42:08.729Z,1348.00
2022-08-09T06:42:51.581Z,1341.00
2022-08-09T06:43:50.528Z,1380.00
2022-08-09T06:44:54.062Z,1396.00
2022-08-09T06:46:04.970Z,1384.00
2022-08-09T06:46:56.715Z,1393.00
2022-08-09T06:48:00.538Z,1417.00
2022-08-09T06:48:51.517Z,1420.00
2022-08-09T06:50:13.525Z,1433.00
2022-08-09T06:50:51.511Z,1451.00
2022-08-09T06:51:50.452Z,1458.00
2022-08-09T06:52:50.441Z,1478.00
2022-08-09T06:53:50.436Z,1492.00
2022-08-09T06:54:50.415Z,1504.00
2022-08-09T06:55:50.425Z,1538.00
2022-08-09T06:56:56.406Z,1541.00
2022-08-09T06:58:03.469Z,1548.00
2022-08-09T07:00:53.065Z,1588.00
2022-08-09T07:00:57.038Z,1567.00
2022-08-09T07:00:58.469Z,1605.00
2022-08-09T07:01:54.824Z,1616.00
2022-08-09T07:02:51.430Z,1633.00
2022-08-09T07:03:52.562Z,1655.00
2022-08-09T07:04:50.324Z,1687.00
2022-08-09T07:05:58.199Z,1698.00
2022-08-09T07:06:53.084Z,1722.00
2022-08-09T07:08:00.986Z,1726.00
2022-08-09T07:08:51.310Z,1747.00
2022-08-09T07:09:55.597Z,1782.00
2022-08-09T07:10:51.299Z,1817.00
2022-08-09T07:11:52.297Z,1834.00
2022-08-09T07:12:57.614Z,1846.00
2022-08-09T07:14:04.846Z,1870.00
2022-08-09T07:14:53.409Z,1906.00
2022-08-09T07:15:53.888Z,1910.00
2022-08-09T07:16:57.458Z,1973.00
2022-08-09T07:17:56.015Z,1972.00
2022-08-09T07:18:56.183Z,2020.00
2022-08-09T07:19:55.177Z,2037.00
2022-08-09T07:20:50.165Z,2060.00
2022-08-09T07:21:57.223Z,2102.00
2022-08-09T07:22:53.188Z,2119.00
2022-08-09T07:23:56.680Z,2147.00
2022-08-09T07:24:57.164Z,2196.00
2022-08-09T07:26:02.563Z,2208.00
2022-08-09T07:26:50.915Z,2226.00
2022-08-09T07:27:53.180Z,2248.00
2022-08-09T07:29:09.112Z,2300.00
2022-08-09T07:29:58.309Z,2317.00
2022-08-09T07:30:56.076Z,2362.00
2022-08-09T07:31:50.043Z,2382.00
2022-08-09T07:32:51.492Z,2428.00
2022-08-09T07:33:52.467Z,2459.00
2022-08-09T07:34:56.017Z,2490.00
2022-08-09T07:35:53.557Z,2515.00
2022-08-09T07:36:49.995Z,2549.00
2022-08-09T07:37:49.982Z,2582.00
2022-08-09T07:38:56.789Z,2607.00
2022-08-09T07:39:51.041Z,2659.00
2022-08-09T07:41:00.962Z,2679.00
2022-08-09T07:41:50.977Z,2692.00
2022-08-09T07:42:50.129Z,2749.00
2022-08-09T07:43:55.946Z,2766.00
2022-08-09T07:44:55.384Z,2809.00
2022-08-09T07:45:50.148Z,2848.00
2022-08-09T07:46:50.094Z,2884.00
2022-08-09T07:48:01.623Z,2915.00
2022-08-09T07:48:52.830Z,2936.00
2022-08-09T07:50:04.847Z,2982.00
2022-08-09T07:50:53.152Z,3035.00
2022-08-09T07:52:05.906Z,3028.00
2022-08-09T07:52:50.863Z,3090.00
2022-08-09T07:54:05.190Z,3107.00
2022-08-09T07:55:28.625Z,3220.00
2022-08-09T07:56:27.354Z,3179.00
2022-08-09T07:57:33.978Z,3219.00
2022-08-09T07:58:27.495Z,3256.00
2022-08-09T07:59:45.771Z,3298.00
2022-08-09T08:00:35.473Z,3326.00
2022-08-09T08:01:33.938Z,3349.00
2022-08-09T08:02:27.587Z,3401.00
2022-08-09T08:03:26.779Z,3437.00
2022-08-09T08:04:32.940Z,3481.00
2022-08-09T08:05:26.394Z,3500.00
2022-08-09T08:06:31.820Z,3536.00
2022-08-09T08:08:43.622Z,3581.00
2022-08-09T08:09:02.524Z,3611.00
2022-08-09T08:09:35.479Z,3658.00
2022-08-09T08:10:28.345Z,3674.00
2022-08-09T08:12:09.868Z,3732.00
2022-08-09T08:12:29.193Z,3760.00
2022-08-09T08:13:26.310Z,3799.00
2022-08-09T08:14:27.335Z,3808.00
2022-08-09T08:15:26.431Z,3850.00
2022-08-09T08:16:29.809Z,3843.00
2022-08-09T08:17:52.023Z,3889.00
2022-08-09T08:18:27.302Z,3913.00
2022-08-09T08:19:30.674Z,3935.00
2022-08-09T08:20:33.270Z,4000.00
2022-08-09T08:21:26.572Z,4016.00
2022-08-09T08:22:28.609Z,4055.00
2022-08-09T08:23:27.372Z,4103.00
2022-08-09T08:24:27.094Z,4127.00
2022-08-09T08:25:26.192Z,4124.00
2022-08-09T08:26:42.023Z,4167.00
2022-08-09T08:27:27.217Z,4213.00
2022-08-09T08:28:34.986Z,4245.00
2022-08-09T08:29:27.825Z,4255.00
2022-08-09T08:30:26.144Z,4323.00
2022-08-09T08:31:39.392Z,4315.00
2022-08-09T08:32:29.370Z,4372.00
2022-08-09T08:33:49.734Z,4405.00
2022-08-09T08:34:27.342Z,4410.00
2022-08-09T08:35:36.983Z,4452.00
2022-08-09T08:36:28.677Z,4484.00
2022-08-09T08:37:26.074Z,4589.00
2022-08-09T08:38:32.085Z,4844.00
2022-08-09T08:39:26.123Z,4162.00
2022-08-09T08:40:26.048Z,4539.00
2022-08-09T08:41:30.806Z,4615.00
2022-08-09T08:42:31.984Z,4684.00
2022-08-09T08:43:26.580Z,4718.00
2022-08-09T08:44:28.713Z,4738.00
2022-08-09T08:45:37.459Z,4755.00
2022-08-09T08:46:33.035Z,4793.00
2022-08-09T08:47:27.603Z,4817.00
2022-08-09T08:48:29.207Z,4831.00
2022-08-09T08:49:33.398Z,4884.00
2022-08-09T08:50:34.159Z,4891.00
2022-08-09T08:51:25.949Z,4901.00
2022-08-09T08:52:57.839Z,4943.00
2022-08-09T08:53:32.099Z,4996.00
2022-08-09T08:54:30.150Z,5011.00
2022-08-09T08:55:25.906Z,5038.00
2022-08-09T08:56:28.498Z,5060.00
2022-08-09T08:57:26.940Z,5100.00
2022-08-09T08:58:27.259Z,5139.00
2022-08-09T08:59:46.664Z,5136.00
2022-08-09T09:00:27.526Z,5206.00
2022-08-09T09:01:44.799Z,5193.00
2022-08-09T09:02:31.901Z,5208.00
2022-08-09T09:03:37.280Z,5278.00
2022-08-09T09:04:27.602Z,5315.00
2022-08-09T09:05:57.790Z,5336.00
2022-08-09T09:06:27.042Z,5337.00
2022-08-09T09:07:25.794Z,5367.00
2022-08-09T09:08:31.010Z,5409.00
2022-08-09T09:09:50.235Z,5434.00
2022-08-09T09:10:26.894Z,5473.00
2022-08-09T09:11:25.963Z,5494.00
2022-08-09T09:12:25.957Z,5543.00
2022-08-09T09:13:41.952Z,5564.00
2022-08-09T09:14:26.764Z,5584.00
2022-08-09T09:16:08.643Z,5692.00
2022-08-09T09:17:10.580Z,5679.00
2022-08-09T09:18:08.394Z,5708.00
2022-08-09T09:19:37.113Z,5707.00
2022-08-09T09:20:09.613Z,5790.00
2022-08-09T09:21:08.365Z,5785.00
2022-08-09T09:22:11.778Z,5819.00
2022-08-09T09:23:08.553Z,5867.00
2022-08-09T09:24:10.343Z,5910.00
2022-08-09T09:26:03.525Z,5929.00
2022-08-09T09:26:12.339Z,5984.00
2022-08-09T09:27:22.180Z,6053.00
2022-08-09T09:28:10.665Z,6064.00
2022-08-09T09:29:17.215Z,6122.00
2022-08-09T09:30:40.097Z,6149.00
2022-08-09T09:31:09.540Z,6202.00
2022-08-09T09:32:15.539Z,6229.00
2022-08-09T09:33:16.750Z,6271.00
2022-08-09T09:34:18.479Z,6348.00
2022-08-09T09:35:15.807Z,6376.00
2022-08-09T09:36:20.246Z,6413.00
2022-08-09T09:37:08.437Z,6430.00
2022-08-09T09:38:08.221Z,6436.00
2022-08-09T09:39:09.936Z,6470.00
2022-08-09T09:40:08.496Z,6492.00
2022-08-09T09:41:10.010Z,6567.00
2022-08-09T09:42:14.201Z,6621.00
2022-08-09T09:43:08.183Z,6640.00
2022-08-09T09:44:12.681Z,6716.00
2022-08-09T09:45:08.600Z,6749.00
2022-08-09T09:47:08.422Z,6932.00
2022-08-09T09:48:08.470Z,6937.00
2022-08-09T09:49:14.339Z,7025.00
2022-08-09T09:50:16.808Z,7193.00
2022-08-09T09:51:11.551Z,7330.00
2022-08-09T09:52:53.862Z,8133.00
2022-08-09T09:54:00.889Z,7946.00
2022-08-09T09:54:48.680Z,7919.00
2022-08-09T09:55:43.853Z,8432.00
2022-08-09T09:58:01.002Z,8833.00
2022-08-09T09:58:03.254Z,9215.00
2022-08-09T09:58:51.082Z,9387.00
2022-08-09T09:59:44.022Z,8771.00
2022-08-09T10:00:52.494Z,9086.00
2022-08-09T10:01:45.051Z,13842.00
2022-08-09T10:02:43.813Z,19810.00
2022-08-09T10:03:44.690Z,21827.00
2022-08-09T10:04:44.826Z,23992.00
2022-08-09T10:06:00.849Z,20645.00
2022-08-09T10:06:47.064Z,19032.00
2022-08-09T10:08:10.880Z,78766.00
2022-08-09T10:08:57.322Z,80891.00
2022-08-09T10:09:48.462Z,81015.00
2022-08-09T10:10:49.744Z,79290.00
2022-08-09T10:12:00.527Z,79376.00
2022-08-09T10:12:49.842Z,80025.00
2022-08-09T10:13:45.710Z,80575.00
2022-08-09T10:14:48.228Z,80449.00
2022-08-09T10:16:58.119Z,79885.00
2022-08-09T10:17:40.147Z,80496.00
2022-08-09T10:18:19.411Z,80125.00
2022-08-09T10:19:18.566Z,79750.00
2022-08-09T10:20:27.409Z,79345.00
2022-08-09T10:21:19.377Z,78888.00
2022-08-09T10:22:29.334Z,78538.00
2022-08-09T10:23:28.206Z,78149.00
2022-08-09T10:24:25.606Z,77240.00
2022-08-09T10:25:21.000Z,77541.00
2022-08-09T10:26:19.422Z,77428.00
2022-08-09T10:27:24.812Z,79139.00
2022-08-09T10:28:19.330Z,80415.00
2022-08-09T10:29:37.190Z,80302.00
2022-08-09T10:32:53.248Z,79036.00
2022-08-09T10:34:10.409Z,79467.00
2022-08-09T10:34:53.974Z,78275.00
2022-08-09T10:35:53.127Z,79002.00
2022-08-09T10:36:58.918Z,79983.00
2022-08-09T10:37:53.107Z,78848.00
2022-08-09T10:38:56.415Z,78576.00
2022-08-09T10:39:53.971Z,77580.00
2022-08-09T10:40:53.026Z,76782.00
2022-08-09T10:41:52.882Z,77850.00
2022-08-09T10:42:53.379Z,77721.00
2022-08-09T10:43:59.394Z,77757.00
2022-08-09T10:44:54.102Z,78379.00
2022-08-09T10:46:00.254Z,79768.00
2022-08-09T10:46:57.715Z,80645.00
2022-08-09T10:48:16.720Z,80124.00
2022-08-09T10:49:51.346Z,80908.00
2022-08-09T10:50:48.848Z,80187.00
2022-08-09T10:51:48.629Z,80615.00
2022-08-09T10:52:48.817Z,81880.00
2022-08-09T10:53:54.755Z,82053.00
2022-08-09T10:54:50.605Z,82481.00
2022-08-09T10:55:58.174Z,83398.00
2022-08-09T10:56:49.624Z,82773.00
2022-08-09T10:57:55.885Z,82826.00
2022-08-09T10:58:49.496Z,83442.00
2022-08-09T10:59:57.718Z,82789.00
2022-08-09T11:03:10.857Z,82970.00
2022-08-09T11:03:15.934Z,83120.00
2022-08-09T11:03:50.401Z,81224.00
2022-08-09T11:04:30.260Z,78213.00
2022-08-09T11:05:25.078Z,79273.00
2022-08-09T11:06:30.912Z,82118.00
2022-08-09T11:07:58.135Z,82814.00
2022-08-09T11:08:54.900Z,77919.00
2022-08-09T11:09:56.453Z,78578.00
2022-08-09T11:10:56.369Z,81309.00
2022-08-09T11:11:54.168Z,80319.00
2022-08-09T11:12:53.960Z,81684.00
2022-08-09T11:13:55.023Z,81482.00
2022-08-09T11:14:53.951Z,81210.00
2022-08-09T11:16:06.385Z,81056.00
2022-08-09T11:16:55.938Z,79459.00
2022-08-09T11:18:03.063Z,79055.00
2022-08-09T11:18:56.436Z,80974.00
2022-08-09T11:20:11.134Z,81425.00
2022-08-09T11:20:55.156Z,80352.00
2022-08-09T11:21:55.131Z,79311.00
2022-08-09T11:24:23.721Z,78260.00
2022-08-09T11:25:17.501Z,76358.00
2022-08-09T11:26:54.633Z,78969.00
2022-08-09T11:28:03.919Z,79137.00
2022-08-09T11:28:56.136Z,79180.00
2022-08-09T11:30:04.353Z,78029.00
2022-08-09T11:30:54.141Z,77418.00
2022-08-09T11:31:58.341Z,78704.00
2022-08-09T11:32:52.125Z,78643.00
2022-08-09T11:33:52.483Z,78957.00
2022-08-09T11:35:50.241Z,83538.00
2022-08-09T11:36:40.371Z,82380.00
2022-08-09T11:37:40.851Z,81440.00
2022-08-09T11:38:45.115Z,79350.00
2022-08-09T11:39:39.169Z,80483.00
2022-08-09T11:40:39.090Z,82181.00
2022-08-09T11:41:40.520Z,83060.00
2022-08-09T11:42:39.083Z,81407.00
2022-08-09T11:43:39.479Z,79093.00
2022-08-09T11:44:39.275Z,80580.00
2022-08-09T11:45:42.702Z,83402.00
2022-08-09T11:46:39.063Z,81839.00
2022-08-09T11:47:45.082Z,78879.00
2022-08-09T11:48:39.255Z,80008.00
2022-08-09T11:53:01.070Z,78000.00
2022-08-09T11:53:06.265Z,80389.00
2022-08-09T11:54:11.295Z,78770.00
2022-08-09T11:55:08.290Z,77416.00
2022-08-09T11:56:08.287Z,78955.00
2022-08-09T11:57:08.279Z,81397.00
2022-08-09T11:58:08.276Z,82245.00
2022-08-09T11:59:08.273Z,83318.00
2022-08-09T12:00:39.018Z,81583.00
2022-08-09T12:02:17.721Z,82624.00
2022-08-09T12:02:40.880Z,80340.00
2022-08-09T12:03:55.290Z,80593.00
2022-08-09T12:04:41.292Z,83102.00
2022-08-09T12:05:42.127Z,82533.00
2022-08-09T12:06:40.970Z,82966.00
2022-08-09T12:07:42.271Z,83302.00
2022-08-09T12:08:38.958Z,82179.00
2022-08-09T12:09:50.628Z,81425.00
2022-08-09T12:10:42.246Z,81371.00
2022-08-09T12:12:02.741Z,80042.00
2022-08-09T12:12:45.984Z,79441.00
2022-08-09T12:14:08.137Z,79998.00
2022-08-09T12:14:58.940Z,79899.00
2022-08-09T12:15:48.560Z,77929.00
2022-08-09T12:16:40.922Z,76362.00
2022-08-09T12:17:43.072Z,77457.00
2022-08-09T12:18:40.904Z,78192.00
2022-08-09T12:20:16.640Z,76691.00
2022-08-09T12:21:28.452Z,76095.00
2022-08-09T12:22:14.812Z,76188.00
2022-08-09T12:23:15.778Z,78567.00
2022-08-09T12:24:21.585Z,79830.00
2022-08-09T12:25:14.874Z,79912.00
2022-08-09T12:26:19.812Z,81584.00
2022-08-09T12:29:13.384Z,82420.00
2022-08-09T12:29:15.409Z,82235.00
2022-08-09T12:29:29.501Z,83155.00
2022-08-09T12:30:36.370Z,82619.00
2022-08-09T12:31:58.313Z,82494.00
2022-08-09T12:32:13.728Z,82653.00
2022-08-09T12:33:13.527Z,82092.00
2022-08-09T12:34:13.518Z,83132.00
2022-08-09T12:35:21.642Z,82939.00
2022-08-09T12:36:31.511Z,82569.00
2022-08-09T12:37:51.727Z,81633.00
2022-08-09T12:39:37.674Z,82333.00
2022-08-09T12:40:36.325Z,82650.00
2022-08-09T12:41:40.227Z,79882.00
2022-08-09T12:42:42.134Z,78701.00
2022-08-09T12:44:06.625Z,69095.00
2022-08-09T12:44:39.801Z,38746.00